Time;durP1;ratioP1;P1;durP2;ratioP2;P2;SDS_P1;SDS_P2;PMS_P1;PMS_P2;Temp;Humidity;BMP_temperature;BMP_pressure;BME280_temperature;BME280_humidity;BME280_pressure;Samples;Min_cycle;Max_cycle;Signal;HPM_P1;HPM_P2
2022/06/21 00:00:28;;;;;;;1999.90;999.90;;;;;;;;;;5131967;27;20390;-71
2022/06/21 00:02:59;;;;;;;1999.90;999.90;;;;;;;;;;5128174;27;20424;-72
2022/06/21 00:05:29;;;;;;;1999.90;999.90;;;;;;;;;;5131911;27;20390;-71
2022/06/21 00:07:57;;;;;;;1999.90;999.90;;;;;;;;;;5135566;27;20593;-73
2022/06/21 00:10:25;;;;;;;1999.90;999.90;;;;;;;;;;5132867;27;20374;-72
2022/06/21 00:12:54;;;;;;;1999.90;999.90;;;;;;;;;;5133111;27;20413;-70
2022/06/21 00:15:22;;;;;;;1999.90;999.90;;;;;;;;;;5132216;27;20398;-71
2022/06/21 00:17:50;;;;;;;1999.90;999.90;;;;;;;;;;5134649;27;20914;-71
2022/06/21 00:20:20;;;;;;;1999.90;999.90;;;;;;;;;;5133205;27;21230;-72
2022/06/21 00:22:48;;;;;;;1999.90;999.90;;;;;;;;;;5132077;27;20389;-71
2022/06/21 00:25:18;;;;;;;1999.90;999.90;;;;;;;;;;5132223;27;20479;-71
2022/06/21 00:27:47;;;;;;;1999.90;999.90;;;;;;;;;;5135025;27;20400;-71
2022/06/21 00:30:17;;;;;;;1999.90;999.90;;;;;;;;;;5135964;27;20891;-72
2022/06/21 00:32:46;;;;;;;1999.90;999.90;;;;;;;;;;5132367;27;20409;-71
2022/06/21 00:35:16;;;;;;;1999.90;999.90;;;;;;;;;;5133512;27;20397;-72
2022/06/21 00:37:44;;;;;;;1999.90;999.90;;;;;;;;;;5131577;27;20514;-72
2022/06/21 00:40:17;;;;;;;1999.90;999.90;;;;;;;;;;5132306;27;20401;-71
2022/06/21 00:42:46;;;;;;;1999.90;999.90;;;;;;;;;;5137112;27;21038;-72
2022/06/21 00:45:16;;;;;;;1999.90;999.90;;;;;;;;;;5131610;27;20404;-71
2022/06/21 00:47:46;;;;;;;1999.90;999.90;;;;;;;;;;5127156;27;20390;-71
2022/06/21 00:50:17;;;;;;;1999.90;999.90;;;;;;;;;;5130435;27;20397;-73
2022/06/21 00:52:47;;;;;;;1999.90;999.90;;;;;;;;;;5132016;27;20447;-72
2022/06/21 00:55:17;;;;;;;1999.90;999.90;;;;;;;;;;5131251;27;20402;-73
2022/06/21 00:57:48;;;;;;;1999.90;999.90;;;;;;;;;;5131418;27;20396;-70
2022/06/21 01:00:24;;;;;;;1999.90;999.90;;;;;;;;;;5141281;27;20813;-71
2022/06/21 01:02:54;;;;;;;1999.90;999.90;;;;;;;;;;5133149;27;20565;-71
2022/06/21 01:05:22;;;;;;;1999.90;999.90;;;;;;;;;;5132271;27;20398;-72
2022/06/21 01:07:50;;;;;;;1999.90;999.90;;;;;;;;;;5129953;27;20424;-71
2022/06/21 01:10:18;;;;;;;1999.90;999.90;;;;;;;;;;5133941;27;20394;-70
2022/06/21 01:12:48;;;;;;;1999.90;999.90;;;;;;;;;;5139895;27;20429;-71
2022/06/21 01:15:18;;;;;;;1999.90;999.90;;;;;;;;;;5134193;27;20444;-71
2022/06/21 01:17:47;;;;;;;1999.90;999.90;;;;;;;;;;5129432;27;21237;-71
2022/06/21 01:20:18;;;;;;;1999.90;999.90;;;;;;;;;;5131762;27;20471;-70
2022/06/21 01:22:50;;;;;;;1999.90;999.90;;;;;;;;;;5114634;27;20401;-70
2022/06/21 01:25:31;;;;;;;1999.90;999.90;;;;;;;;;;5128273;27;20391;-70
2022/06/21 01:28:00;;;;;;;1999.90;999.90;;;;;;;;;;5133852;27;20398;-72
2022/06/21 01:30:28;;;;;;;1999.90;999.90;;;;;;;;;;5128972;27;20404;-74
2022/06/21 01:32:57;;;;;;;1999.90;999.90;;;;;;;;;;5129659;27;20401;-72
2022/06/21 01:35:28;;;;;;;1999.90;999.90;;;;;;;;;;5128720;27;20376;-71
2022/06/21 01:37:56;;;;;;;1999.90;999.90;;;;;;;;;;5127709;27;20470;-71
2022/06/21 01:40:29;;;;;;;1999.90;999.90;;;;;;;;;;5131443;27;33369;-71
2022/06/21 01:43:00;;;;;;;1999.90;999.90;;;;;;;;;;5133055;27;20390;-72
2022/06/21 01:45:33;;;;;;;1999.90;999.90;;;;;;;;;;5132397;27;20860;-74
2022/06/21 01:48:02;;;;;;;1999.90;999.90;;;;;;;;;;5131669;27;20390;-71
2022/06/21 01:50:30;;;;;;;1999.90;999.90;;;;;;;;;;5132879;27;20846;-72
2022/06/21 01:52:58;;;;;;;1999.90;999.90;;;;;;;;;;5132569;27;20388;-71
2022/06/21 01:55:28;;;;;;;1999.90;999.90;;;;;;;;;;5113557;27;20382;-73
2022/06/21 01:57:57;;;;;;;1999.90;999.90;;;;;;;;;;5128666;27;20408;-72
2022/06/21 02:00:25;;;;;;;1999.90;999.90;;;;;;;;;;5133459;27;21169;-71
2022/06/21 02:02:56;;;;;;;1999.90;999.90;;;;;;;;;;5127462;27;20394;-71
2022/06/21 02:05:30;;;;;;;1999.90;999.90;;;;;;;;;;5128487;27;20401;-71
2022/06/21 02:08:00;;;;;;;1999.90;999.90;;;;;;;;;;5131024;27;20429;-73
2022/06/21 02:10:31;;;;;;;1999.90;999.90;;;;;;;;;;5132293;27;21164;-72
2022/06/21 02:13:00;;;;;;;1999.90;999.90;;;;;;;;;;5132942;27;20385;-72
2022/06/21 02:15:33;;;;;;;1999.90;999.90;;;;;;;;;;5132298;27;20385;-73
2022/06/21 02:18:02;;;;;;;1999.90;999.90;;;;;;;;;;5129296;27;20400;-72
2022/06/21 02:20:35;;;;;;;1999.90;999.90;;;;;;;;;;5138835;27;20401;-71
2022/06/21 02:23:03;;;;;;;1999.90;999.90;;;;;;;;;;5130302;27;20427;-72
2022/06/21 02:25:31;;;;;;;1999.90;999.90;;;;;;;;;;5128136;27;20837;-72
2022/06/21 02:28:01;;;;;;;1999.90;999.90;;;;;;;;;;5131096;27;20412;-70
2022/06/21 02:30:29;;;;;;;1999.90;999.90;;;;;;;;;;5133144;27;20394;-72
2022/06/21 02:32:59;;;;;;;1999.90;999.90;;;;;;;;;;5132971;27;21729;-71
2022/06/21 02:35:31;;;;;;;1999.90;999.90;;;;;;;;;;5132186;27;20393;-74
2022/06/21 02:38:00;;;;;;;1999.90;999.90;;;;;;;;;;5132822;27;20801;-73
2022/06/21 02:40:29;;;;;;;1999.90;999.90;;;;;;;;;;5136678;27;20482;-71
2022/06/21 02:42:59;;;;;;;1999.90;999.90;;;;;;;;;;5137624;27;21319;-72
2022/06/21 02:45:29;;;;;;;1999.90;999.90;;;;;;;;;;5135406;27;20396;-73
2022/06/21 02:48:01;;;;;;;1999.90;999.90;;;;;;;;;;5133309;27;20406;-71
2022/06/21 02:50:34;;;;;;;1999.90;999.90;;;;;;;;;;5136247;27;20443;-70
2022/06/21 02:53:04;;;;;;;1999.90;999.90;;;;;;;;;;5133963;27;20443;-71
2022/06/21 02:55:38;;;;;;;1999.90;999.90;;;;;;;;;;5134753;27;20444;-70
2022/06/21 02:58:07;;;;;;;1999.90;999.90;;;;;;;;;;5135953;27;20443;-70
2022/06/21 03:00:35;;;;;;;1999.90;999.90;;;;;;;;;;5132471;27;20826;-71
2022/06/21 03:03:05;;;;;;;1999.90;999.90;;;;;;;;;;5134431;27;20397;-71
2022/06/21 03:05:35;;;;;;;1999.90;999.90;;;;;;;;;;5111910;27;20454;-72
2022/06/21 03:08:05;;;;;;;1999.90;999.90;;;;;;;;;;5131888;27;20773;-71
2022/06/21 03:10:36;;;;;;;1999.90;999.90;;;;;;;;;;5131330;27;20384;-71
2022/06/21 03:13:07;;;;;;;1999.90;999.90;;;;;;;;;;5132783;27;20603;-72
2022/06/21 03:15:35;;;;;;;1999.90;999.90;;;;;;;;;;5133903;27;20392;-71
2022/06/21 03:18:04;;;;;;;1999.90;999.90;;;;;;;;;;5133775;27;20394;-72
2022/06/21 03:20:33;;;;;;;1999.90;999.90;;;;;;;;;;5132285;27;21214;-71
2022/06/21 03:23:02;;;;;;;1999.90;999.90;;;;;;;;;;5132120;27;20432;-71
2022/06/21 03:25:34;;;;;;;1999.90;999.90;;;;;;;;;;5129744;27;21235;-70
2022/06/21 03:28:02;;;;;;;1999.90;999.90;;;;;;;;;;5134232;27;20401;-71
2022/06/21 03:30:31;;;;;;;1999.90;999.90;;;;;;;;;;5133206;27;20388;-73
2022/06/21 03:32:59;;;;;;;1999.90;999.90;;;;;;;;;;5130907;27;20410;-71
2022/06/21 03:35:29;;;;;;;1999.90;999.90;;;;;;;;;;5130937;27;20391;-72
2022/06/21 03:37:57;;;;;;;1999.90;999.90;;;;;;;;;;5132830;27;20878;-71
2022/06/21 03:43:14;;;;;;;1999.90;999.90;;;;;;;;;;5131174;27;20392;-71
2022/06/21 03:45:43;;;;;;;1999.90;999.90;;;;;;;;;;5133163;27;21158;-72
2022/06/21 03:48:14;;;;;;;1999.90;999.90;;;;;;;;;;5135197;27;20483;-73
2022/06/21 03:50:45;;;;;;;1999.90;999.90;;;;;;;;;;5133650;27;20388;-72
2022/06/21 03:53:18;;;;;;;1999.90;999.90;;;;;;;;;;5131703;27;20402;-74
2022/06/21 03:55:50;;;;;;;1999.90;999.90;;;;;;;;;;5132304;27;20376;-71
2022/06/21 03:58:22;;;;;;;1999.90;999.90;;;;;;;;;;5133388;27;20388;-73
2022/06/21 04:00:51;;;;;;;1999.90;999.90;;;;;;;;;;5127776;27;20530;-71
2022/06/21 04:03:23;;;;;;;1999.90;999.90;;;;;;;;;;5127689;27;20394;-73
2022/06/21 04:05:54;;;;;;;1999.90;999.90;;;;;;;;;;5124317;27;20417;-72
2022/06/21 04:08:24;;;;;;;1999.90;999.90;;;;;;;;;;5132873;27;20407;-72
2022/06/21 04:10:56;;;;;;;1999.90;999.90;;;;;;;;;;5130378;27;20431;-70
2022/06/21 04:13:26;;;;;;;1999.90;999.90;;;;;;;;;;5125153;27;20468;-71
2022/06/21 04:15:57;;;;;;;1999.90;999.90;;;;;;;;;;5104089;27;20397;-70
2022/06/21 04:18:28;;;;;;;1999.90;999.90;;;;;;;;;;5122556;27;20474;-71
2022/06/21 04:21:00;;;;;;;1999.90;999.90;;;;;;;;;;5108236;27;20384;-70
2022/06/21 04:23:31;;;;;;;1999.90;999.90;;;;;;;;;;5118340;27;20437;-70
2022/06/21 04:26:04;;;;;;;1999.90;999.90;;;;;;;;;;5130259;27;20441;-71
2022/06/21 04:28:35;;;;;;;1999.90;999.90;;;;;;;;;;5124841;27;20413;-70
2022/06/21 04:31:05;;;;;;;1999.90;999.90;;;;;;;;;;5127563;27;20373;-71
2022/06/21 04:33:35;;;;;;;1999.90;999.90;;;;;;;;;;5124735;27;20476;-71
2022/06/21 04:36:06;;;;;;;1999.90;999.90;;;;;;;;;;5122367;27;20394;-71
2022/06/21 04:38:36;;;;;;;1999.90;999.90;;;;;;;;;;5127176;27;20415;-73
2022/06/21 04:41:07;;;;;;;1999.90;999.90;;;;;;;;;;5126039;27;21055;-73
2022/06/21 04:43:38;;;;;;;1999.90;999.90;;;;;;;;;;5129044;27;20383;-72
2022/06/21 04:46:09;;;;;;;1999.90;999.90;;;;;;;;;;5127477;27;20394;-71
2022/06/21 04:48:39;;;;;;;1999.90;999.90;;;;;;;;;;5127554;27;20514;-71
2022/06/21 04:51:09;;;;;;;1999.90;999.90;;;;;;;;;;5128137;27;20777;-71
2022/06/21 04:53:41;;;;;;;1999.90;999.90;;;;;;;;;;5126178;27;20410;-71
2022/06/21 04:56:18;;;;;;;1999.90;999.90;;;;;;;;;;5120890;27;20391;-71
2022/06/21 04:58:47;;;;;;;1999.90;999.90;;;;;;;;;;5116236;27;20406;-71
2022/06/21 05:04:03;;;;;;;1999.90;999.90;;;;;;;;;;5106162;27;20394;-70
2022/06/21 05:06:30;;;;;;;1999.90;999.90;;;;;;;;;;5122627;27;20973;-71
2022/06/21 05:08:59;;;;;;;1999.90;999.90;;;;;;;;;;5122393;27;20417;-71
2022/06/21 05:11:31;;;;;;;1999.90;999.90;;;;;;;;;;5124433;27;20439;-71
2022/06/21 05:13:59;;;;;;;1999.90;999.90;;;;;;;;;;5130136;27;20397;-76
2022/06/21 05:16:29;;;;;;;1999.90;999.90;;;;;;;;;;5127477;27;20402;-74
2022/06/21 05:18:59;;;;;;;1999.90;999.90;;;;;;;;;;5129164;27;20446;-75
2022/06/21 05:21:31;;;;;;;1999.90;999.90;;;;;;;;;;5126722;27;20894;-76
2022/06/21 05:23:59;;;;;;;1999.90;999.90;;;;;;;;;;5126512;27;20933;-76
2022/06/21 05:26:31;;;;;;;1999.90;999.90;;;;;;;;;;5132713;27;20391;-75
2022/06/21 05:29:03;;;;;;;1999.90;999.90;;;;;;;;;;5148152;27;20404;-75
2022/06/21 05:31:35;;;;;;;1999.90;999.90;;;;;;;;;;5131457;27;20392;-78
2022/06/21 05:34:07;;;;;;;1999.90;999.90;;;;;;;;;;5129001;27;20403;-76
2022/06/21 05:36:37;;;;;;;1999.90;999.90;;;;;;;;;;5127693;27;20386;-76
2022/06/21 05:39:08;;;;;;;1999.90;999.90;;;;;;;;;;5126869;27;20808;-81
2022/06/21 05:41:39;;;;;;;1999.90;999.90;;;;;;;;;;5110012;27;21067;-73
2022/06/21 05:44:12;;;;;;;1999.90;999.90;;;;;;;;;;5128795;27;20824;-76
2022/06/21 05:46:42;;;;;;;1999.90;999.90;;;;;;;;;;5125749;27;20383;-76
2022/06/21 05:49:17;;;;;;;1999.90;999.90;;;;;;;;;;5128779;27;20432;-79
2022/06/21 05:51:45;;;;;;;1999.90;999.90;;;;;;;;;;5108359;27;20370;-74
2022/06/21 05:54:14;;;;;;;1999.90;999.90;;;;;;;;;;5132411;27;20398;-74
2022/06/21 05:56:43;;;;;;;1999.90;999.90;;;;;;;;;;5130263;27;20384;-75
2022/06/21 05:59:15;;;;;;;1999.90;999.90;;;;;;;;;;5129200;27;20384;-77
2022/06/21 06:01:45;;;;;;;1999.90;999.90;;;;;;;;;;5112637;27;20829;-74
2022/06/21 06:04:15;;;;;;;1999.90;999.90;;;;;;;;;;5127006;27;20401;-77
2022/06/21 06:06:45;;;;;;;1999.90;999.90;;;;;;;;;;5130836;27;20354;-76
2022/06/21 06:09:16;;;;;;;1999.90;999.90;;;;;;;;;;5133876;27;20408;-77
2022/06/21 06:11:59;;;;;;;1999.90;999.90;;;;;;;;;;5129336;27;20400;-74
2022/06/21 06:14:30;;;;;;;1999.90;999.90;;;;;;;;;;5132805;27;20390;-75
2022/06/21 06:16:59;;;;;;;1999.90;999.90;;;;;;;;;;5129713;27;20406;-76
2022/06/21 06:19:30;;;;;;;1999.90;999.90;;;;;;;;;;5134752;27;20937;-75
2022/06/21 06:22:10;;;;;;;1999.90;999.90;;;;;;;;;;5129446;27;20396;-76
2022/06/21 06:24:43;;;;;;;1999.90;999.90;;;;;;;;;;5127570;27;20837;-74
2022/06/21 06:27:20;;;;;;;1999.90;999.90;;;;;;;;;;5138600;27;20392;-75
2022/06/21 06:29:51;;;;;;;1999.90;999.90;;;;;;;;;;5135589;27;20447;-75
2022/06/21 06:32:22;;;;;;;1999.90;999.90;;;;;;;;;;5134329;27;20402;-74
2022/06/21 06:34:52;;;;;;;1999.90;999.90;;;;;;;;;;5129933;27;20409;-76
2022/06/21 06:37:22;;;;;;;1999.90;999.90;;;;;;;;;;5132568;27;20393;-75
2022/06/21 06:39:50;;;;;;;1999.90;999.90;;;;;;;;;;5133110;27;20400;-76
2022/06/21 06:42:19;;;;;;;1999.90;999.90;;;;;;;;;;5133952;27;20426;-72
2022/06/21 06:44:49;;;;;;;1999.90;999.90;;;;;;;;;;5130424;27;20571;-78
2022/06/21 06:47:20;;;;;;;1999.90;999.90;;;;;;;;;;5129132;27;21104;-75
2022/06/21 06:49:52;;;;;;;1999.90;999.90;;;;;;;;;;5129584;27;20463;-75
2022/06/21 06:52:22;;;;;;;1999.90;999.90;;;;;;;;;;5136231;27;20403;-75
2022/06/21 06:54:53;;;;;;;1999.90;999.90;;;;;;;;;;5127722;27;20382;-75
2022/06/21 06:57:25;;;;;;;1999.90;999.90;;;;;;;;;;5126748;27;20410;-74
2022/06/21 06:59:55;;;;;;;1999.90;999.90;;;;;;;;;;5128273;27;20397;-76
2022/06/21 07:02:27;;;;;;;1999.90;999.90;;;;;;;;;;5128642;27;20392;-75
2022/06/21 07:05:02;;;;;;;1999.90;999.90;;;;;;;;;;5131316;27;20387;-76
2022/06/21 07:07:38;;;;;;;1999.90;999.90;;;;;;;;;;5135072;27;20389;-77
2022/06/21 07:10:10;;;;;;;1999.90;999.90;;;;;;;;;;5130624;27;20921;-74
2022/06/21 07:12:38;;;;;;;1999.90;999.90;;;;;;;;;;5127066;27;21223;-79
2022/06/21 07:15:06;;;;;;;1999.90;999.90;;;;;;;;;;5127897;27;21257;-75
2022/06/21 07:17:38;;;;;;;1999.90;999.90;;;;;;;;;;5126737;27;20428;-76
2022/06/21 07:20:19;;;;;;;1999.90;999.90;;;;;;;;;;5133621;27;20464;-76
2022/06/21 07:22:47;;;;;;;1999.90;999.90;;;;;;;;;;5130018;27;20428;-76
2022/06/21 07:25:37;;;;;;;1999.90;999.90;;;;;;;;;;5133089;27;20424;-74
2022/06/21 07:28:09;;;;;;;1999.90;999.90;;;;;;;;;;5111920;27;20455;-76
2022/06/21 07:30:40;;;;;;;1999.90;999.90;;;;;;;;;;5140588;27;20404;-76
2022/06/21 07:33:12;;;;;;;1999.90;999.90;;;;;;;;;;5128993;27;20376;-75
2022/06/21 07:35:41;;;;;;;1999.90;999.90;;;;;;;;;;5132552;27;20412;-73
2022/06/21 07:38:13;;;;;;;1999.90;999.90;;;;;;;;;;5132418;27;20348;-74
2022/06/21 07:40:44;;;;;;;1999.90;999.90;;;;;;;;;;5130080;27;20566;-72
2022/06/21 07:43:14;;;;;;;1999.90;999.90;;;;;;;;;;5134276;27;20385;-79
2022/06/21 07:45:44;;;;;;;1999.90;999.90;;;;;;;;;;5130677;27;20403;-76
2022/06/21 07:48:16;;;;;;;1999.90;999.90;;;;;;;;;;5134690;27;20437;-75
2022/06/21 07:50:46;;;;;;;1999.90;999.90;;;;;;;;;;5123984;27;20483;-73
2022/06/21 07:53:15;;;;;;;1999.90;999.90;;;;;;;;;;5130637;27;20384;-74
2022/06/21 07:55:46;;;;;;;1999.90;999.90;;;;;;;;;;5130412;27;20410;-74
2022/06/21 07:58:16;;;;;;;1999.90;999.90;;;;;;;;;;5133038;27;20893;-74
2022/06/21 08:09:13;;;;;;;1999.90;999.90;;;;;;;;;;5126041;27;20413;-75
2022/06/21 08:11:42;;;;;;;1999.90;999.90;;;;;;;;;;5133133;27;21229;-74
2022/06/21 08:14:10;;;;;;;1999.90;999.90;;;;;;;;;;5127004;27;20386;-74
2022/06/21 08:16:43;;;;;;;1999.90;999.90;;;;;;;;;;5130280;27;20398;-77
2022/06/21 08:19:18;;;;;;;1999.90;999.90;;;;;;;;;;5126657;27;20417;-74
2022/06/21 08:21:49;;;;;;;1999.90;999.90;;;;;;;;;;5124951;27;20600;-77
2022/06/21 08:24:19;;;;;;;1999.90;999.90;;;;;;;;;;5120092;27;20406;-78
2022/06/21 08:26:48;;;;;;;1999.90;999.90;;;;;;;;;;5111863;27;20469;-77
2022/06/21 08:29:20;;;;;;;1999.90;999.90;;;;;;;;;;5148732;27;20910;-76
2022/06/21 08:31:51;;;;;;;1999.90;999.90;;;;;;;;;;5133326;27;20405;-74
2022/06/21 08:34:23;;;;;;;1999.90;999.90;;;;;;;;;;5132949;27;20401;-77
2022/06/21 08:36:54;;;;;;;1999.90;999.90;;;;;;;;;;5108036;27;20384;-75
2022/06/21 08:39:25;;;;;;;1999.90;999.90;;;;;;;;;;5125251;27;20386;-73
2022/06/21 08:42:14;;;;;;;1999.90;999.90;;;;;;;;;;5128040;27;20405;-77
2022/06/21 08:45:40;;;;;;;1999.90;999.90;;;;;;;;;;5122578;27;20392;-77
2022/06/21 08:47:51;;;;;;;1999.90;999.90;;;;;;;;;;5136315;27;20395;-74
2022/06/21 08:50:47;;;;;;;1999.90;999.90;;;;;;;;;;5124107;27;20354;-75
2022/06/21 08:53:20;;;;;;;1999.90;999.90;;;;;;;;;;5125584;27;20474;-75
2022/06/21 08:55:52;;;;;;;1999.90;999.90;;;;;;;;;;5125393;27;20805;-78
2022/06/21 08:58:28;;;;;;;1999.90;999.90;;;;;;;;;;5126961;27;20846;-75
2022/06/21 09:00:59;;;;;;;1999.90;999.90;;;;;;;;;;5126734;27;20388;-74
2022/06/21 09:03:57;;;;;;;1999.90;999.90;;;;;;;;;;5134229;27;20401;-79
2022/06/21 09:06:33;;;;;;;1999.90;999.90;;;;;;;;;;5062884;28;20481;-76
2022/06/21 09:09:25;;;;;;;1999.90;999.90;;;;;;;;;;5113275;27;20412;-75
2022/06/21 09:11:58;;;;;;;1999.90;999.90;;;;;;;;;;5113727;27;20401;-74
2022/06/21 09:14:32;;;;;;;1999.90;999.90;;;;;;;;;;5128383;27;20392;-74
2022/06/21 09:17:05;;;;;;;1999.90;999.90;;;;;;;;;;5129182;27;20673;-74
2022/06/21 09:19:42;;;;;;;1999.90;999.90;;;;;;;;;;5127904;27;20377;-76
2022/06/21 09:22:15;;;;;;;1999.90;999.90;;;;;;;;;;5129771;27;20497;-73
2022/06/21 09:24:47;;;;;;;1999.90;999.90;;;;;;;;;;5131283;27;20377;-73
2022/06/21 09:27:18;;;;;;;1999.90;999.90;;;;;;;;;;5124793;27;20888;-73
2022/06/21 09:29:52;;;;;;;1999.90;999.90;;;;;;;;;;5129271;27;20409;-73
2022/06/21 09:32:24;;;;;;;1999.90;999.90;;;;;;;;;;5123489;27;20467;-79
2022/06/21 09:35:00;;;;;;;1999.90;999.90;;;;;;;;;;5124235;27;20536;-78
2022/06/21 09:37:34;;;;;;;1999.90;999.90;;;;;;;;;;5129253;27;20455;-75
2022/06/21 09:40:05;;;;;;;1999.90;999.90;;;;;;;;;;5126219;27;20444;-74
2022/06/21 09:42:55;;;;;;;1999.90;999.90;;;;;;;;;;5128548;27;20396;-73
2022/06/21 09:45:27;;;;;;;1999.90;999.90;;;;;;;;;;5128830;27;20412;-74
2022/06/21 09:47:59;;;;;;;1999.90;999.90;;;;;;;;;;5128882;27;21233;-76
2022/06/21 09:50:31;;;;;;;1999.90;999.90;;;;;;;;;;5127682;27;20395;-74
2022/06/21 09:53:03;;;;;;;1999.90;999.90;;;;;;;;;;5128492;27;20394;-74
2022/06/21 09:55:34;;;;;;;1999.90;999.90;;;;;;;;;;5123981;27;20508;-73
2022/06/21 09:58:06;;;;;;;1999.90;999.90;;;;;;;;;;5128017;27;20784;-77
2022/06/21 10:00:38;;;;;;;1999.90;999.90;;;;;;;;;;5126407;27;20392;-76
2022/06/21 10:03:11;;;;;;;1999.90;999.90;;;;;;;;;;5124265;27;20447;-75
2022/06/21 10:05:43;;;;;;;1999.90;999.90;;;;;;;;;;5124453;27;21702;-78
2022/06/21 10:08:26;;;;;;;1999.90;999.90;;;;;;;;;;5123263;27;20397;-73
2022/06/21 10:11:00;;;;;;;1999.90;999.90;;;;;;;;;;5134040;27;20866;-74
2022/06/21 10:13:39;;;;;;;1999.90;999.90;;;;;;;;;;5109061;27;21532;-75
2022/06/21 10:16:20;;;;;;;1999.90;999.90;;;;;;;;;;5127148;27;20462;-74
2022/06/21 10:18:55;;;;;;;1999.90;999.90;;;;;;;;;;5129278;27;20890;-76
2022/06/21 10:21:41;;;;;;;1999.90;999.90;;;;;;;;;;5124376;27;20855;-74
2022/06/21 10:24:17;;;;;;;1999.90;999.90;;;;;;;;;;5116251;27;20813;-76
2022/06/21 10:26:57;;;;;;;1999.90;999.90;;;;;;;;;;5129569;27;20413;-72
2022/06/21 10:29:34;;;;;;;1999.90;999.90;;;;;;;;;;5126272;27;20400;-75
2022/06/21 10:32:15;;;;;;;1999.90;999.90;;;;;;;;;;5128045;27;20386;-74
2022/06/21 10:35:06;;;;;;;1999.90;999.90;;;;;;;;;;5131346;27;20459;-75
2022/06/21 10:37:39;;;;;;;1999.90;999.90;;;;;;;;;;5127308;27;20395;-75
2022/06/21 10:40:22;;;;;;;1999.90;999.90;;;;;;;;;;5132456;27;20736;-74
2022/06/21 10:43:00;;;;;;;1999.90;999.90;;;;;;;;;;5130421;27;20376;-76
2022/06/21 10:45:35;;;;;;;1999.90;999.90;;;;;;;;;;5146962;27;20403;-74
2022/06/21 10:48:13;;;;;;;1999.90;999.90;;;;;;;;;;5128325;27;20410;-78
2022/06/21 10:50:47;;;;;;;1999.90;999.90;;;;;;;;;;5129255;27;20377;-74
2022/06/21 10:53:22;;;;;;;1999.90;999.90;;;;;;;;;;5130347;27;20401;-75
2022/06/21 10:57:09;;;;;;;1999.90;999.90;;;;;;;;;;5129223;27;20487;-77
2022/06/21 10:59:02;;;;;;;1999.90;999.90;;;;;;;;;;5114518;27;20981;-74
2022/06/21 11:01:43;;;;;;;1999.90;999.90;;;;;;;;;;5131215;27;20412;-75
2022/06/21 11:04:28;;;;;;;1999.90;999.90;;;;;;;;;;5132375;27;20396;-76
2022/06/21 11:06:59;;;;;;;1999.90;999.90;;;;;;;;;;5141784;27;20380;-73
2022/06/21 11:09:31;;;;;;;1999.90;999.90;;;;;;;;;;5134631;27;20489;-73
2022/06/21 11:12:52;;;;;;;1999.90;999.90;;;;;;;;;;5115248;27;20468;-73
2022/06/21 11:14:57;;;;;;;1999.90;999.90;;;;;;;;;;5130545;27;21605;-72
2022/06/21 11:17:29;;;;;;;1999.90;999.90;;;;;;;;;;5110998;27;21046;-77
2022/06/21 11:20:03;;;;;;;1999.90;999.90;;;;;;;;;;5129273;27;20485;-73
2022/06/21 11:22:38;;;;;;;1999.90;999.90;;;;;;;;;;5115031;27;20394;-74
2022/06/21 11:25:12;;;;;;;1999.90;999.90;;;;;;;;;;5132646;27;20400;-76
2022/06/21 11:27:45;;;;;;;1999.90;999.90;;;;;;;;;;5112049;27;20549;-75
2022/06/21 11:30:14;;;;;;;1999.90;999.90;;;;;;;;;;5126317;27;20511;-75
2022/06/21 11:32:45;;;;;;;1999.90;999.90;;;;;;;;;;5131306;27;21284;-75
2022/06/21 11:35:17;;;;;;;1999.90;999.90;;;;;;;;;;5115323;27;20395;-73
2022/06/21 11:37:51;;;;;;;1999.90;999.90;;;;;;;;;;5127748;27;20463;-74
2022/06/21 11:40:30;;;;;;;1999.90;999.90;;;;;;;;;;5131017;27;20817;-77
2022/06/21 11:42:59;;;;;;;1999.90;999.90;;;;;;;;;;5128251;27;20389;-74
2022/06/21 11:45:38;;;;;;;1999.90;999.90;;;;;;;;;;5129936;27;20395;-74
2022/06/21 11:48:14;;;;;;;1999.90;999.90;;;;;;;;;;5132516;27;20512;-77
2022/06/21 11:50:48;;;;;;;1999.90;999.90;;;;;;;;;;5130528;27;20394;-76
2022/06/21 11:53:36;;;;;;;1999.90;999.90;;;;;;;;;;5132227;27;21186;-76
2022/06/21 11:56:06;;;;;;;1999.90;999.90;;;;;;;;;;5130090;27;20387;-74
2022/06/21 11:58:38;;;;;;;1999.90;999.90;;;;;;;;;;5126365;27;21017;-75
2022/06/21 12:01:12;;;;;;;1999.90;999.90;;;;;;;;;;5127434;27;20389;-75
2022/06/21 12:03:44;;;;;;;1999.90;999.90;;;;;;;;;;5136740;27;20864;-74
2022/06/21 12:06:14;;;;;;;1999.90;999.90;;;;;;;;;;5128405;27;20920;-75
2022/06/21 12:09:04;;;;;;;1999.90;999.90;;;;;;;;;;5131157;27;20831;-74
2022/06/21 12:11:37;;;;;;;1999.90;999.90;;;;;;;;;;5131084;27;20447;-75
2022/06/21 12:14:14;;;;;;;1999.90;999.90;;;;;;;;;;5127790;27;20414;-74
2022/06/21 12:16:45;;;;;;;1999.90;999.90;;;;;;;;;;5129047;27;20787;-79
2022/06/21 12:19:15;;;;;;;1999.90;999.90;;;;;;;;;;5135114;27;20388;-74
2022/06/21 12:21:47;;;;;;;1999.90;999.90;;;;;;;;;;5133695;27;20403;-73
2022/06/21 12:24:16;;;;;;;1999.90;999.90;;;;;;;;;;5133334;27;20387;-77
2022/06/21 12:26:44;;;;;;;1999.90;999.90;;;;;;;;;;5132359;27;20410;-75
2022/06/21 12:29:15;;;;;;;1999.90;999.90;;;;;;;;;;5128777;27;20402;-77
2022/06/21 12:31:47;;;;;;;1999.90;999.90;;;;;;;;;;5126799;27;20458;-75
2022/06/21 12:34:19;;;;;;;1999.90;999.90;;;;;;;;;;5129553;27;20384;-74
2022/06/21 12:36:49;;;;;;;1999.90;999.90;;;;;;;;;;5122933;27;20398;-74
2022/06/21 12:39:22;;;;;;;1999.90;999.90;;;;;;;;;;5127730;27;20386;-75
2022/06/21 12:41:59;;;;;;;1999.90;999.90;;;;;;;;;;5110412;27;20596;-76
2022/06/21 12:44:40;;;;;;;1999.90;999.90;;;;;;;;;;5124354;27;20461;-77
2022/06/21 12:47:19;;;;;;;1999.90;999.90;;;;;;;;;;5126098;27;20361;-73
2022/06/21 12:50:03;;;;;;;1999.90;999.90;;;;;;;;;;5125986;27;20863;-77
2022/06/21 12:52:35;;;;;;;1999.90;999.90;;;;;;;;;;5127530;27;20396;-77
2022/06/21 12:55:07;;;;;;;1999.90;999.90;;;;;;;;;;5133047;27;20392;-76
2022/06/21 12:57:53;;;;;;;1999.90;999.90;;;;;;;;;;5124966;27;20394;-76
2022/06/21 13:00:26;;;;;;;1999.90;999.90;;;;;;;;;;5130530;27;20398;-77
2022/06/21 13:03:07;;;;;;;1999.90;999.90;;;;;;;;;;5129404;27;20409;-76
2022/06/21 13:05:40;;;;;;;1999.90;999.90;;;;;;;;;;5112933;27;21834;-78
2022/06/21 13:08:23;;;;;;;1999.90;999.90;;;;;;;;;;5131739;27;20450;-77
2022/06/21 13:10:54;;;;;;;1999.90;999.90;;;;;;;;;;5127541;27;20400;-75
2022/06/21 13:13:35;;;;;;;1999.90;999.90;;;;;;;;;;5134861;27;20406;-75
2022/06/21 13:16:08;;;;;;;1999.90;999.90;;;;;;;;;;5130846;27;20897;-77
2022/06/21 13:18:42;;;;;;;1999.90;999.90;;;;;;;;;;5131596;27;20617;-79
2022/06/21 13:21:13;;;;;;;1999.90;999.90;;;;;;;;;;5132025;27;20387;-75
2022/06/21 13:23:48;;;;;;;1999.90;999.90;;;;;;;;;;5122525;27;20408;-75
2022/06/21 13:26:22;;;;;;;1999.90;999.90;;;;;;;;;;5125916;27;20447;-74
2022/06/21 13:28:55;;;;;;;1999.90;999.90;;;;;;;;;;5131337;27;20400;-76
2022/06/21 13:31:29;;;;;;;1999.90;999.90;;;;;;;;;;5132066;27;20406;-76
2022/06/21 13:33:59;;;;;;;1999.90;999.90;;;;;;;;;;5125427;27;20409;-74
2022/06/21 13:36:33;;;;;;;1999.90;999.90;;;;;;;;;;5128855;27;20385;-74
2022/06/21 13:39:02;;;;;;;1999.90;999.90;;;;;;;;;;5128290;27;20387;-74
2022/06/21 13:44:20;;;;;;;1999.90;999.90;;;;;;;;;;5128710;27;20489;-76
2022/06/21 13:46:54;;;;;;;1999.90;999.90;;;;;;;;;;5129034;27;20403;-74
2022/06/21 13:49:23;;;;;;;1999.90;999.90;;;;;;;;;;5125976;27;20947;-76
2022/06/21 13:51:54;;;;;;;1999.90;999.90;;;;;;;;;;5128422;27;20384;-74
2022/06/21 13:54:23;;;;;;;1999.90;999.90;;;;;;;;;;5131285;27;21323;-73
2022/06/21 13:56:54;;;;;;;1999.90;999.90;;;;;;;;;;5128534;27;20380;-74
2022/06/21 13:59:23;;;;;;;1999.90;999.90;;;;;;;;;;5122783;27;20408;-74
2022/06/21 14:01:56;;;;;;;1999.90;999.90;;;;;;;;;;5129516;27;20400;-78
2022/06/21 14:04:30;;;;;;;1999.90;999.90;;;;;;;;;;5113316;27;20524;-75
2022/06/21 14:07:03;;;;;;;1999.90;999.90;;;;;;;;;;5144699;27;20945;-74
2022/06/21 14:09:34;;;;;;;1999.90;999.90;;;;;;;;;;5130687;27;20447;-78
2022/06/21 14:12:07;;;;;;;1999.90;999.90;;;;;;;;;;5127468;27;20905;-74
2022/06/21 14:14:40;;;;;;;1999.90;999.90;;;;;;;;;;5126552;27;20443;-76
2022/06/21 14:17:14;;;;;;;1999.90;999.90;;;;;;;;;;5137188;27;20396;-73
2022/06/21 14:19:44;;;;;;;1999.90;999.90;;;;;;;;;;5113922;27;20500;-71
2022/06/21 14:22:18;;;;;;;1999.90;999.90;;;;;;;;;;5120039;27;20899;-72
2022/06/21 14:24:51;;;;;;;1999.90;999.90;;;;;;;;;;5120657;27;20435;-72
2022/06/21 14:27:21;;;;;;;1999.90;999.90;;;;;;;;;;5126945;27;20398;-72